sensor_id;sensor_type;location;lat;lon;timestamp;temperature;humidity
14519;DHT22;7346;50.846;4.388;2022-10-23T00:00:38;16.80;99.90
14519;DHT22;7346;50.846;4.388;2022-10-23T00:03:05;16.90;99.90
14519;DHT22;7346;50.846;4.388;2022-10-23T00:05:32;16.90;99.90
14519;DHT22;7346;50.846;4.388;2022-10-23T00:07:59;16.90;99.90
14519;DHT22;7346;50.846;4.388;2022-10-23T00:10:27;16.80;99.90
14519;DHT22;7346;50.846;4.388;2022-10-23T00:12:55;16.90;99.90
14519;DHT22;7346;50.846;4.388;2022-10-23T00:15:23;16.80;99.90
14519;DHT22;7346;50.846;4.388;2022-10-23T00:17:52;16.90;99.90
14519;DHT22;7346;50.846;4.388;2022-10-23T00:20:19;16.70;99.90
14519;DHT22;7346;50.846;4.388;2022-10-23T00:22:46;16.80;99.90
14519;DHT22;7346;50.846;4.388;2022-10-23T00:25:13;16.80;99.90
14519;DHT22;7346;50.846;4.388;2022-10-23T00:27:41;16.70;99.90
14519;DHT22;7346;50.846;4.388;2022-10-23T00:30:11;16.80;99.90
14519;DHT22;7346;50.846;4.388;2022-10-23T00:32:38;16.90;99.90
14519;DHT22;7346;50.846;4.388;2022-10-23T00:35:06;16.90;99.90
14519;DHT22;7346;50.846;4.388;2022-10-23T00:37:33;16.90;99.90
14519;DHT22;7346;50.846;4.388;2022-10-23T00:40:00;16.90;99.90
14519;DHT22;7346;50.846;4.388;2022-10-23T00:42:27;17.00;99.90
14519;DHT22;7346;50.846;4.388;2022-10-23T00:45:20;17.10;99.90
14519;DHT22;7346;50.846;4.388;2022-10-23T00:47:49;17.20;99.90
14519;DHT22;7346;50.846;4.388;2022-10-23T00:50:16;17.30;99.90
14519;DHT22;7346;50.846;4.388;2022-10-23T00:52:46;17.30;99.90
14519;DHT22;7346;50.846;4.388;2022-10-23T00:55:15;17.20;99.90
14519;DHT22;7346;50.846;4.388;2022-10-23T00:57:44;17.10;99.90
14519;DHT22;7346;50.846;4.388;2022-10-23T01:00:15;17.00;99.90
14519;DHT22;7346;50.846;4.388;2022-10-23T01:02:43;17.00;99.90
14519;DHT22;7346;50.846;4.388;2022-10-23T01:05:10;17.10;99.90
14519;DHT22;7346;50.846;4.388;2022-10-23T01:07:42;17.10;99.90
14519;DHT22;7346;50.846;4.388;2022-10-23T01:10:14;17.00;99.90
14519;DHT22;7346;50.846;4.388;2022-10-23T01:12:48;17.00;99.90
14519;DHT22;7346;50.846;4.388;2022-10-23T01:15:20;17.00;99.90
14519;DHT22;7346;50.846;4.388;2022-10-23T01:17:52;16.90;99.90
14519;DHT22;7346;50.846;4.388;2022-10-23T01:20:39;16.90;99.90
14519;DHT22;7346;50.846;4.388;2022-10-23T01:26:34;16.70;99.90
14519;DHT22;7346;50.846;4.388;2022-10-23T01:29:10;16.50;99.90
14519;DHT22;7346;50.846;4.388;2022-10-23T01:31:45;16.50;99.90
14519;DHT22;7346;50.846;4.388;2022-10-23T01:34:17;16.60;99.90
14519;DHT22;7346;50.846;4.388;2022-10-23T01:36:47;16.60;99.90
14519;DHT22;7346;50.846;4.388;2022-10-23T01:39:18;16.70;99.90
14519;DHT22;7346;50.846;4.388;2022-10-23T01:41:49;16.70;99.90
14519;DHT22;7346;50.846;4.388;2022-10-23T01:44:26;16.70;99.90
14519;DHT22;7346;50.846;4.388;2022-10-23T01:46:54;16.70;99.90
14519;DHT22;7346;50.846;4.388;2022-10-23T01:49:22;16.70;99.90
14519;DHT22;7346;50.846;4.388;2022-10-23T01:51:53;16.80;99.90
14519;DHT22;7346;50.846;4.388;2022-10-23T01:54:24;16.70;99.90
14519;DHT22;7346;50.846;4.388;2022-10-23T01:56:52;16.70;99.90
14519;DHT22;7346;50.846;4.388;2022-10-23T01:59:24;16.70;99.90
14519;DHT22;7346;50.846;4.388;2022-10-23T02:01:55;16.70;99.90
14519;DHT22;7346;50.846;4.388;2022-10-23T02:04:27;16.70;99.90
14519;DHT22;7346;50.846;4.388;2022-10-23T02:06:56;16.70;99.90
14519;DHT22;7346;50.846;4.388;2022-10-23T02:09:23;16.70;99.90
14519;DHT22;7346;50.846;4.388;2022-10-23T02:11:53;16.60;99.90
14519;DHT22;7346;50.846;4.388;2022-10-23T02:14:32;16.60;99.90
14519;DHT22;7346;50.846;4.388;2022-10-23T02:17:10;16.70;99.90
14519;DHT22;7346;50.846;4.388;2022-10-23T02:19:46;16.80;99.90
14519;DHT22;7346;50.846;4.388;2022-10-23T02:22:18;16.80;99.90
14519;DHT22;7346;50.846;4.388;2022-10-23T02:24:50;16.70;99.90
14519;DHT22;7346;50.846;4.388;2022-10-23T02:27:20;16.60;99.90
14519;DHT22;7346;50.846;4.388;2022-10-23T02:29:52;16.70;99.90
14519;DHT22;7346;50.846;4.388;2022-10-23T02:32:22;16.70;99.90
14519;DHT22;7346;50.846;4.388;2022-10-23T02:34:50;16.60;99.90
14519;DHT22;7346;50.846;4.388;2022-10-23T02:37:17;16.60;99.90
14519;DHT22;7346;50.846;4.388;2022-10-23T02:39:44;16.50;99.90
14519;DHT22;7346;50.846;4.388;2022-10-23T02:42:16;16.40;99.90
14519;DHT22;7346;50.846;4.388;2022-10-23T02:44:56;16.60;99.90
14519;DHT22;7346;50.846;4.388;2022-10-23T02:47:33;16.60;99.90
14519;DHT22;7346;50.846;4.388;2022-10-23T02:50:06;16.60;99.90
14519;DHT22;7346;50.846;4.388;2022-10-23T02:52:41;16.70;99.90
14519;DHT22;7346;50.846;4.388;2022-10-23T02:55:23;16.60;99.90
14519;DHT22;7346;50.846;4.388;2022-10-23T02:57:55;16.60;99.90
14519;DHT22;7346;50.846;4.388;2022-10-23T03:00:26;16.60;99.90
14519;DHT22;7346;50.846;4.388;2022-10-23T03:02:58;16.50;99.90
14519;DHT22;7346;50.846;4.388;2022-10-23T03:05:28;16.60;99.90
14519;DHT22;7346;50.846;4.388;2022-10-23T03:07:56;16.60;99.90
14519;DHT22;7346;50.846;4.388;2022-10-23T03:10:23;16.70;99.90
14519;DHT22;7346;50.846;4.388;2022-10-23T03:12:50;16.70;99.90
14519;DHT22;7346;50.846;4.388;2022-10-23T03:15:17;16.80;99.90
14519;DHT22;7346;50.846;4.388;2022-10-23T03:17:45;16.60;99.90
14519;DHT22;7346;50.846;4.388;2022-10-23T03:20:12;16.60;99.90
14519;DHT22;7346;50.846;4.388;2022-10-23T03:22:39;16.60;99.90
14519;DHT22;7346;50.846;4.388;2022-10-23T03:25:07;16.50;99.90
14519;DHT22;7346;50.846;4.388;2022-10-23T03:27:34;16.50;99.90
14519;DHT22;7346;50.846;4.388;2022-10-23T03:30:02;16.70;99.90
14519;DHT22;7346;50.846;4.388;2022-10-23T03:32:29;16.70;99.90
14519;DHT22;7346;50.846;4.388;2022-10-23T03:34:57;16.80;99.90
14519;DHT22;7346;50.846;4.388;2022-10-23T03:37:24;16.90;99.90
14519;DHT22;7346;50.846;4.388;2022-10-23T03:39:51;16.90;99.90
14519;DHT22;7346;50.846;4.388;2022-10-23T03:42:18;16.70;99.90
14519;DHT22;7346;50.846;4.388;2022-10-23T03:44:45;16.80;99.90
14519;DHT22;7346;50.846;4.388;2022-10-23T03:47:12;16.90;99.90
14519;DHT22;7346;50.846;4.388;2022-10-23T03:49:39;17.00;99.90
14519;DHT22;7346;50.846;4.388;2022-10-23T03:52:07;16.90;99.90
14519;DHT22;7346;50.846;4.388;2022-10-23T03:54:34;16.80;99.90
14519;DHT22;7346;50.846;4.388;2022-10-23T03:57:01;16.80;99.90
14519;DHT22;7346;50.846;4.388;2022-10-23T03:59:29;16.70;99.90
14519;DHT22;7346;50.846;4.388;2022-10-23T04:01:56;16.70;99.90
14519;DHT22;7346;50.846;4.388;2022-10-23T04:04:23;16.70;99.90
14519;DHT22;7346;50.846;4.388;2022-10-23T04:06:50;16.80;99.90
14519;DHT22;7346;50.846;4.388;2022-10-23T04:09:19;16.90;99.90
14519;DHT22;7346;50.846;4.388;2022-10-23T04:11:45;16.80;99.90
14519;DHT22;7346;50.846;4.388;2022-10-23T04:14:13;16.80;99.90
14519;DHT22;7346;50.846;4.388;2022-10-23T04:16:40;16.90;99.90
14519;DHT22;7346;50.846;4.388;2022-10-23T04:19:07;16.90;99.90
14519;DHT22;7346;50.846;4.388;2022-10-23T04:21:34;16.80;99.90
14519;DHT22;7346;50.846;4.388;2022-10-23T04:24:01;16.70;99.90
14519;DHT22;7346;50.846;4.388;2022-10-23T04:26:29;16.70;99.90
14519;DHT22;7346;50.846;4.388;2022-10-23T04:28:56;16.70;99.90
14519;DHT22;7346;50.846;4.388;2022-10-23T04:31:23;16.70;99.90
14519;DHT22;7346;50.846;4.388;2022-10-23T04:33:50;16.80;99.90
14519;DHT22;7346;50.846;4.388;2022-10-23T04:36:17;16.80;99.90
14519;DHT22;7346;50.846;4.388;2022-10-23T04:38:44;16.80;99.90
14519;DHT22;7346;50.846;4.388;2022-10-23T04:41:12;16.90;99.90
14519;DHT22;7346;50.846;4.388;2022-10-23T04:43:40;16.90;99.90
14519;DHT22;7346;50.846;4.388;2022-10-23T04:46:07;16.70;99.90
14519;DHT22;7346;50.846;4.388;2022-10-23T04:48:34;16.80;99.90
14519;DHT22;7346;50.846;4.388;2022-10-23T04:51:03;16.80;99.90
14519;DHT22;7346;50.846;4.388;2022-10-23T04:53:30;16.80;99.90
14519;DHT22;7346;50.846;4.388;2022-10-23T04:55:58;16.80;99.90
14519;DHT22;7346;50.846;4.388;2022-10-23T04:58:26;16.80;99.90
14519;DHT22;7346;50.846;4.388;2022-10-23T05:00:55;16.90;99.90
14519;DHT22;7346;50.846;4.388;2022-10-23T05:03:23;16.80;99.90
14519;DHT22;7346;50.846;4.388;2022-10-23T05:05:52;16.90;99.90
14519;DHT22;7346;50.846;4.388;2022-10-23T05:08:20;16.90;99.90
14519;DHT22;7346;50.846;4.388;2022-10-23T05:10:47;17.00;99.90
14519;DHT22;7346;50.846;4.388;2022-10-23T05:13:15;16.90;99.90
14519;DHT22;7346;50.846;4.388;2022-10-23T05:15:44;16.70;99.90
14519;DHT22;7346;50.846;4.388;2022-10-23T05:18:16;16.70;99.90
14519;DHT22;7346;50.846;4.388;2022-10-23T05:20:45;16.90;99.90
14519;DHT22;7346;50.846;4.388;2022-10-23T05:23:15;16.90;99.90
14519;DHT22;7346;50.846;4.388;2022-10-23T05:25:44;16.90;99.90
14519;DHT22;7346;50.846;4.388;2022-10-23T05:28:10;16.80;99.90
14519;DHT22;7346;50.846;4.388;2022-10-23T05:30:38;16.90;99.90
14519;DHT22;7346;50.846;4.388;2022-10-23T05:33:05;16.90;99.90
14519;DHT22;7346;50.846;4.388;2022-10-23T05:35:33;16.90;99.90
14519;DHT22;7346;50.846;4.388;2022-10-23T05:38:02;17.00;99.90
14519;DHT22;7346;50.846;4.388;2022-10-23T05:40:29;17.10;99.90
14519;DHT22;7346;50.846;4.388;2022-10-23T05:42:56;17.10;99.90
14519;DHT22;7346;50.846;4.388;2022-10-23T05:45:23;17.00;99.90
14519;DHT22;7346;50.846;4.388;2022-10-23T05:47:50;17.00;99.90
14519;DHT22;7346;50.846;4.388;2022-10-23T05:50:19;16.90;99.90
14519;DHT22;7346;50.846;4.388;2022-10-23T05:52:50;16.90;99.90
14519;DHT22;7346;50.846;4.388;2022-10-23T05:55:17;16.90;99.90
14519;DHT22;7346;50.846;4.388;2022-10-23T05:57:44;16.80;99.90
14519;DHT22;7346;50.846;4.388;2022-10-23T06:00:12;16.80;99.90
14519;DHT22;7346;50.846;4.388;2022-10-23T06:02:39;16.90;99.90
14519;DHT22;7346;50.846;4.388;2022-10-23T06:05:06;16.90;99.90
14519;DHT22;7346;50.846;4.388;2022-10-23T06:07:33;16.90;99.90
14519;DHT22;7346;50.846;4.388;2022-10-23T06:10:02;16.90;99.90
14519;DHT22;7346;50.846;4.388;2022-10-23T06:12:30;16.90;99.90
14519;DHT22;7346;50.846;4.388;2022-10-23T06:14:57;16.90;99.90
14519;DHT22;7346;50.846;4.388;2022-10-23T06:17:24;16.90;99.90
14519;DHT22;7346;50.846;4.388;2022-10-23T06:19:51;16.90;99.90
14519;DHT22;7346;50.846;4.388;2022-10-23T06:22:18;16.90;99.90
14519;DHT22;7346;50.846;4.388;2022-10-23T06:24:45;16.80;99.90
14519;DHT22;7346;50.846;4.388;2022-10-23T06:27:13;16.80;99.90
14519;DHT22;7346;50.846;4.388;2022-10-23T06:29:40;16.90;99.90
14519;DHT22;7346;50.846;4.388;2022-10-23T06:32:07;16.90;99.90
14519;DHT22;7346;50.846;4.388;2022-10-23T06:34:34;16.90;99.90
14519;DHT22;7346;50.846;4.388;2022-10-23T06:37:01;16.90;99.90
14519;DHT22;7346;50.846;4.388;2022-10-23T06:39:28;16.80;99.90
14519;DHT22;7346;50.846;4.388;2022-10-23T06:41:55;16.80;99.90
14519;DHT22;7346;50.846;4.388;2022-10-23T06:44:25;16.80;99.90
14519;DHT22;7346;50.846;4.388;2022-10-23T06:46:52;16.70;99.90
14519;DHT22;7346;50.846;4.388;2022-10-23T06:49:22;16.70;99.90
14519;DHT22;7346;50.846;4.388;2022-10-23T06:51:49;16.80;99.90
14519;DHT22;7346;50.846;4.388;2022-10-23T06:54:16;16.80;99.90
14519;DHT22;7346;50.846;4.388;2022-10-23T06:56:43;16.90;99.90
14519;DHT22;7346;50.846;4.388;2022-10-23T06:59:09;17.00;99.90
14519;DHT22;7346;50.846;4.388;2022-10-23T07:01:38;17.10;99.90
14519;DHT22;7346;50.846;4.388;2022-10-23T07:04:04;17.10;99.90
14519;DHT22;7346;50.846;4.388;2022-10-23T07:06:31;17.20;99.90
14519;DHT22;7346;50.846;4.388;2022-10-23T07:08:58;17.20;99.90
14519;DHT22;7346;50.846;4.388;2022-10-23T07:11:25;17.20;99.90
14519;DHT22;7346;50.846;4.388;2022-10-23T07:13:52;17.30;99.90
14519;DHT22;7346;50.846;4.388;2022-10-23T07:16:20;17.40;99.90
14519;DHT22;7346;50.846;4.388;2022-10-23T07:18:53;17.40;99.90
14519;DHT22;7346;50.846;4.388;2022-10-23T07:21:23;17.50;99.90
14519;DHT22;7346;50.846;4.388;2022-10-23T07:23:50;17.50;99.90
14519;DHT22;7346;50.846;4.388;2022-10-23T07:26:18;17.50;99.90
14519;DHT22;7346;50.846;4.388;2022-10-23T07:28:46;17.70;99.90
14519;DHT22;7346;50.846;4.388;2022-10-23T07:31:15;17.70;99.90
14519;DHT22;7346;50.846;4.388;2022-10-23T07:33:42;17.70;99.90
14519;DHT22;7346;50.846;4.388;2022-10-23T07:36:10;17.60;99.90
14519;DHT22;7346;50.846;4.388;2022-10-23T07:38:37;17.50;99.90
14519;DHT22;7346;50.846;4.388;2022-10-23T07:41:04;17.60;99.90
14519;DHT22;7346;50.846;4.388;2022-10-23T07:43:32;17.70;99.90
14519;DHT22;7346;50.846;4.388;2022-10-23T07:46:00;17.70;99.90
14519;DHT22;7346;50.846;4.388;2022-10-23T07:48:28;17.80;99.90
14519;DHT22;7346;50.846;4.388;2022-10-23T07:50:57;17.80;99.90
14519;DHT22;7346;50.846;4.388;2022-10-23T07:53:27;17.60;99.90
14519;DHT22;7346;50.846;4.388;2022-10-23T07:55:55;17.60;99.90
14519;DHT22;7346;50.846;4.388;2022-10-23T07:58:22;17.70;99.90
14519;DHT22;7346;50.846;4.388;2022-10-23T08:00:54;17.70;99.90
14519;DHT22;7346;50.846;4.388;2022-10-23T08:03:23;17.70;99.90
14519;DHT22;7346;50.846;4.388;2022-10-23T08:05:51;17.80;99.90
14519;DHT22;7346;50.846;4.388;2022-10-23T08:08:19;17.90;99.90
14519;DHT22;7346;50.846;4.388;2022-10-23T08:10:49;18.00;99.90
14519;DHT22;7346;50.846;4.388;2022-10-23T08:13:17;18.10;99.90
14519;DHT22;7346;50.846;4.388;2022-10-23T08:15:46;18.20;99.90
14519;DHT22;7346;50.846;4.388;2022-10-23T08:18:14;18.30;99.90
14519;DHT22;7346;50.846;4.388;2022-10-23T08:20:42;18.30;99.90
14519;DHT22;7346;50.846;4.388;2022-10-23T08:23:10;18.30;99.90
14519;DHT22;7346;50.846;4.388;2022-10-23T08:25:37;18.10;99.90
14519;DHT22;7346;50.846;4.388;2022-10-23T08:28:07;18.10;99.90
14519;DHT22;7346;50.846;4.388;2022-10-23T08:30:34;18.00;99.90
14519;DHT22;7346;50.846;4.388;2022-10-23T08:33:02;18.00;99.90
14519;DHT22;7346;50.846;4.388;2022-10-23T08:35:29;18.10;99.90
14519;DHT22;7346;50.846;4.388;2022-10-23T08:37:55;18.20;99.90
14519;DHT22;7346;50.846;4.388;2022-10-23T08:40:23;18.30;99.90
14519;DHT22;7346;50.846;4.388;2022-10-23T08:42:56;18.40;99.90
14519;DHT22;7346;50.846;4.388;2022-10-23T08:45:30;18.40;99.90
14519;DHT22;7346;50.846;4.388;2022-10-23T08:48:03;18.40;99.90
14519;DHT22;7346;50.846;4.388;2022-10-23T08:50:37;18.40;99.90
14519;DHT22;7346;50.846;4.388;2022-10-23T08:53:12;18.30;99.90
14519;DHT22;7346;50.846;4.388;2022-10-23T08:55:42;18.20;99.90
14519;DHT22;7346;50.846;4.388;2022-10-23T08:58:15;18.10;99.90
14519;DHT22;7346;50.846;4.388;2022-10-23T09:00:46;18.20;99.90
14519;DHT22;7346;50.846;4.388;2022-10-23T09:03:15;18.20;99.90
14519;DHT22;7346;50.846;4.388;2022-10-23T09:05:51;18.20;99.90
14519;DHT22;7346;50.846;4.388;2022-10-23T09:08:32;18.20;99.90
14519;DHT22;7346;50.846;4.388;2022-10-23T09:11:03;18.30;99.90
14519;DHT22;7346;50.846;4.388;2022-10-23T09:16:42;18.40;99.90
14519;DHT22;7346;50.846;4.388;2022-10-23T09:19:15;18.40;99.90
14519;DHT22;7346;50.846;4.388;2022-10-23T09:21:43;18.40;99.90
14519;DHT22;7346;50.846;4.388;2022-10-23T09:24:14;18.60;99.90
14519;DHT22;7346;50.846;4.388;2022-10-23T09:26:43;18.60;99.90
14519;DHT22;7346;50.846;4.388;2022-10-23T09:29:20;18.60;99.90
14519;DHT22;7346;50.846;4.388;2022-10-23T09:31:49;18.70;99.90
14519;DHT22;7346;50.846;4.388;2022-10-23T09:34:20;18.60;99.90
14519;DHT22;7346;50.846;4.388;2022-10-23T09:36:50;18.50;99.90
14519;DHT22;7346;50.846;4.388;2022-10-23T09:39:25;18.70;99.90
14519;DHT22;7346;50.846;4.388;2022-10-23T09:41:53;18.80;99.90
14519;DHT22;7346;50.846;4.388;2022-10-23T09:44:21;18.60;99.90
14519;DHT22;7346;50.846;4.388;2022-10-23T09:46:51;18.60;99.90
14519;DHT22;7346;50.846;4.388;2022-10-23T09:49:21;18.70;99.90
14519;DHT22;7346;50.846;4.388;2022-10-23T09:51:53;18.70;99.90
14519;DHT22;7346;50.846;4.388;2022-10-23T09:54:23;18.80;99.90
14519;DHT22;7346;50.846;4.388;2022-10-23T09:56:51;18.80;99.90
14519;DHT22;7346;50.846;4.388;2022-10-23T09:59:22;18.70;99.90
14519;DHT22;7346;50.846;4.388;2022-10-23T10:01:54;18.90;99.90
14519;DHT22;7346;50.846;4.388;2022-10-23T10:04:31;19.10;99.90
14519;DHT22;7346;50.846;4.388;2022-10-23T10:06:58;19.20;99.90
14519;DHT22;7346;50.846;4.388;2022-10-23T10:09:27;19.20;99.90
14519;DHT22;7346;50.846;4.388;2022-10-23T10:11:56;19.00;99.90
14519;DHT22;7346;50.846;4.388;2022-10-23T10:14:42;18.90;99.90
14519;DHT22;7346;50.846;4.388;2022-10-23T10:17:22;18.80;99.90
14519;DHT22;7346;50.846;4.388;2022-10-23T10:20:18;18.90;99.90
14519;DHT22;7346;50.846;4.388;2022-10-23T10:22:52;18.90;99.90
14519;DHT22;7346;50.846;4.388;2022-10-23T10:25:26;19.00;99.90
14519;DHT22;7346;50.846;4.388;2022-10-23T10:28:04;19.20;99.90
14519;DHT22;7346;50.846;4.388;2022-10-23T10:30:39;19.40;99.90
14519;DHT22;7346;50.846;4.388;2022-10-23T10:33:17;19.70;99.90
14519;DHT22;7346;50.846;4.388;2022-10-23T10:35:52;19.70;99.90
14519;DHT22;7346;50.846;4.388;2022-10-23T10:38:42;19.80;99.90
14519;DHT22;7346;50.846;4.388;2022-10-23T10:41:40;20.00;99.90
14519;DHT22;7346;50.846;4.388;2022-10-23T10:44:40;20.00;99.90
14519;DHT22;7346;50.846;4.388;2022-10-23T10:47:13;19.90;99.90
14519;DHT22;7346;50.846;4.388;2022-10-23T10:49:48;19.60;99.90
14519;DHT22;7346;50.846;4.388;2022-10-23T10:52:26;19.70;99.90
14519;DHT22;7346;50.846;4.388;2022-10-23T10:54:59;19.90;99.90
14519;DHT22;7346;50.846;4.388;2022-10-23T10:57:31;20.10;99.90
14519;DHT22;7346;50.846;4.388;2022-10-23T11:00:03;20.10;99.90
14519;DHT22;7346;50.846;4.388;2022-10-23T11:02:37;19.70;99.90
14519;DHT22;7346;50.846;4.388;2022-10-23T11:05:16;19.70;99.90
14519;DHT22;7346;50.846;4.388;2022-10-23T11:07:54;19.80;99.90
14519;DHT22;7346;50.846;4.388;2022-10-23T11:10:22;19.80;99.90
14519;DHT22;7346;50.846;4.388;2022-10-23T11:12:50;19.90;99.90
14519;DHT22;7346;50.846;4.388;2022-10-23T11:15:19;19.90;99.90
14519;DHT22;7346;50.846;4.388;2022-10-23T11:17:50;20.00;99.90
14519;DHT22;7346;50.846;4.388;2022-10-23T11:20:50;20.10;99.90
14519;DHT22;7346;50.846;4.388;2022-10-23T11:23:41;20.10;99.90
14519;DHT22;7346;50.846;4.388;2022-10-23T11:26:22;20.10;99.90
14519;DHT22;7346;50.846;4.388;2022-10-23T11:29:13;20.10;99.90
14519;DHT22;7346;50.846;4.388;2022-10-23T11:31:53;20.10;99.90
14519;DHT22;7346;50.846;4.388;2022-10-23T11:37:32;20.40;99.90
14519;DHT22;7346;50.846;4.388;2022-10-23T11:40:02;20.10;99.90
14519;DHT22;7346;50.846;4.388;2022-10-23T11:42:32;20.10;99.90
14519;DHT22;7346;50.846;4.388;2022-10-23T11:44:59;20.10;99.90
14519;DHT22;7346;50.846;4.388;2022-10-23T11:47:36;20.20;99.90
14519;DHT22;7346;50.846;4.388;2022-10-23T11:50:15;20.20;99.90
14519;DHT22;7346;50.846;4.388;2022-10-23T11:52:58;20.30;99.90
14519;DHT22;7346;50.846;4.388;2022-10-23T11:55:26;20.10;99.90
14519;DHT22;7346;50.846;4.388;2022-10-23T11:58:18;20.30;99.90
14519;DHT22;7346;50.846;4.388;2022-10-23T12:00:53;20.50;99.90
14519;DHT22;7346;50.846;4.388;2022-10-23T12:03:25;20.50;99.90
14519;DHT22;7346;50.846;4.388;2022-10-23T12:05:59;20.90;99.90
14519;DHT22;7346;50.846;4.388;2022-10-23T12:08:32;20.90;99.90
14519;DHT22;7346;50.846;4.388;2022-10-23T12:11:00;21.00;99.90
14519;DHT22;7346;50.846;4.388;2022-10-23T12:13:30;20.90;99.90
14519;DHT22;7346;50.846;4.388;2022-10-23T12:16:08;20.90;99.90
14519;DHT22;7346;50.846;4.388;2022-10-23T12:18:44;20.90;99.90
14519;DHT22;7346;50.846;4.388;2022-10-23T12:21:15;20.80;99.90
14519;DHT22;7346;50.846;4.388;2022-10-23T12:24:03;20.80;99.90
14519;DHT22;7346;50.846;4.388;2022-10-23T12:26:53;20.70;99.90
14519;DHT22;7346;50.846;4.388;2022-10-23T12:29:42;20.80;99.90
14519;DHT22;7346;50.846;4.388;2022-10-23T12:32:29;20.90;99.90
14519;DHT22;7346;50.846;4.388;2022-10-23T12:35:20;21.10;99.90
14519;DHT22;7346;50.846;4.388;2022-10-23T12:38:06;21.10;99.90
14519;DHT22;7346;50.846;4.388;2022-10-23T12:40:37;21.00;99.90
14519;DHT22;7346;50.846;4.388;2022-10-23T12:43:20;21.00;99.90
14519;DHT22;7346;50.846;4.388;2022-10-23T12:45:48;21.20;99.90
14519;DHT22;7346;50.846;4.388;2022-10-23T12:48:18;21.20;99.90
14519;DHT22;7346;50.846;4.388;2022-10-23T12:50:48;21.20;99.90
14519;DHT22;7346;50.846;4.388;2022-10-23T12:53:17;21.40;99.90
14519;DHT22;7346;50.846;4.388;2022-10-23T12:55:52;21.30;99.90
14519;DHT22;7346;50.846;4.388;2022-10-23T12:58:22;21.40;99.90
14519;DHT22;7346;50.846;4.388;2022-10-23T13:00:50;21.40;99.90
14519;DHT22;7346;50.846;4.388;2022-10-23T13:03:19;21.30;99.90
14519;DHT22;7346;50.846;4.388;2022-10-23T13:05:49;21.30;99.90
14519;DHT22;7346;50.846;4.388;2022-10-23T13:08:16;21.30;99.90
14519;DHT22;7346;50.846;4.388;2022-10-23T13:10:44;21.30;99.90
14519;DHT22;7346;50.846;4.388;2022-10-23T13:13:14;21.10;99.90
14519;DHT22;7346;50.846;4.388;2022-10-23T13:15:44;21.10;99.90
14519;DHT22;7346;50.846;4.388;2022-10-23T13:18:13;21.00;99.90
14519;DHT22;7346;50.846;4.388;2022-10-23T13:20:42;21.00;99.90
14519;DHT22;7346;50.846;4.388;2022-10-23T13:23:15;21.00;99.90
14519;DHT22;7346;50.846;4.388;2022-10-23T13:25:52;21.10;99.90
14519;DHT22;7346;50.846;4.388;2022-10-23T13:28:26;21.10;99.90
14519;DHT22;7346;50.846;4.388;2022-10-23T13:31:02;21.00;99.90
14519;DHT22;7346;50.846;4.388;2022-10-23T13:33:35;21.00;99.90
14519;DHT22;7346;50.846;4.388;2022-10-23T13:36:05;21.10;99.90
14519;DHT22;7346;50.846;4.388;2022-10-23T13:38:46;21.00;99.90
14519;DHT22;7346;50.846;4.388;2022-10-23T13:41:15;21.00;99.90
14519;DHT22;7346;50.846;4.388;2022-10-23T13:43:46;21.00;99.90
14519;DHT22;7346;50.846;4.388;2022-10-23T13:46:14;20.90;99.90
14519;DHT22;7346;50.846;4.388;2022-10-23T13:48:41;20.90;99.90
14519;DHT22;7346;50.846;4.388;2022-10-23T13:51:11;20.90;99.90
14519;DHT22;7346;50.846;4.388;2022-10-23T13:53:38;21.00;99.90
14519;DHT22;7346;50.846;4.388;2022-10-23T13:56:06;20.90;99.90
14519;DHT22;7346;50.846;4.388;2022-10-23T13:58:35;21.00;99.90
14519;DHT22;7346;50.846;4.388;2022-10-23T14:01:03;21.00;99.90
14519;DHT22;7346;50.846;4.388;2022-10-23T14:03:30;21.10;99.90
14519;DHT22;7346;50.846;4.388;2022-10-23T14:05:57;21.20;99.90
14519;DHT22;7346;50.846;4.388;2022-10-23T14:08:25;21.30;99.90
14519;DHT22;7346;50.846;4.388;2022-10-23T14:10:52;21.20;99.90
14519;DHT22;7346;50.846;4.388;2022-10-23T14:13:19;21.20;99.90
14519;DHT22;7346;50.846;4.388;2022-10-23T14:15:52;21.20;99.90
14519;DHT22;7346;50.846;4.388;2022-10-23T14:18:21;21.20;99.90
14519;DHT22;7346;50.846;4.388;2022-10-23T14:20:48;21.20;99.90
14519;DHT22;7346;50.846;4.388;2022-10-23T14:23:15;21.40;99.90
14519;DHT22;7346;50.846;4.388;2022-10-23T14:25:42;21.50;99.90
14519;DHT22;7346;50.846;4.388;2022-10-23T14:28:09;21.50;99.90
14519;DHT22;7346;50.846;4.388;2022-10-23T14:30:36;21.50;99.90
14519;DHT22;7346;50.846;4.388;2022-10-23T14:33:03;21.50;99.90
14519;DHT22;7346;50.846;4.388;2022-10-23T14:35:31;21.40;99.90
14519;DHT22;7346;50.846;4.388;2022-10-23T14:37:58;21.40;99.90
14519;DHT22;7346;50.846;4.388;2022-10-23T14:40:25;21.30;99.90
14519;DHT22;7346;50.846;4.388;2022-10-23T14:42:52;21.20;99.90
14519;DHT22;7346;50.846;4.388;2022-10-23T14:45:19;21.20;99.90
14519;DHT22;7346;50.846;4.388;2022-10-23T14:47:46;21.30;99.90
14519;DHT22;7346;50.846;4.388;2022-10-23T14:50:14;21.30;99.90
14519;DHT22;7346;50.846;4.388;2022-10-23T14:52:42;21.20;99.90
14519;DHT22;7346;50.846;4.388;2022-10-23T14:55:09;21.20;99.90
14519;DHT22;7346;50.846;4.388;2022-10-23T14:57:36;21.30;99.90
14519;DHT22;7346;50.846;4.388;2022-10-23T15:00:04;21.40;99.90
14519;DHT22;7346;50.846;4.388;2022-10-23T15:02:31;21.40;99.90
14519;DHT22;7346;50.846;4.388;2022-10-23T15:04:58;21.40;99.90
14519;DHT22;7346;50.846;4.388;2022-10-23T15:07:25;21.20;99.90
14519;DHT22;7346;50.846;4.388;2022-10-23T15:09:53;21.30;99.90
14519;DHT22;7346;50.846;4.388;2022-10-23T15:12:20;21.20;99.90
14519;DHT22;7346;50.846;4.388;2022-10-23T15:14:47;21.20;99.90
14519;DHT22;7346;50.846;4.388;2022-10-23T15:17:14;21.20;99.90
14519;DHT22;7346;50.846;4.388;2022-10-23T15:19:41;21.20;99.90
14519;DHT22;7346;50.846;4.388;2022-10-23T15:22:08;21.10;99.90
14519;DHT22;7346;50.846;4.388;2022-10-23T15:24:35;21.00;99.90
14519;DHT22;7346;50.846;4.388;2022-10-23T15:27:03;21.10;99.90
14519;DHT22;7346;50.846;4.388;2022-10-23T15:29:30;21.00;99.90
14519;DHT22;7346;50.846;4.388;2022-10-23T15:31:57;20.90;99.90
14519;DHT22;7346;50.846;4.388;2022-10-23T15:34:26;20.90;99.90
14519;DHT22;7346;50.846;4.388;2022-10-23T15:36:55;20.80;99.90
14519;DHT22;7346;50.846;4.388;2022-10-23T15:39:23;20.80;99.90
14519;DHT22;7346;50.846;4.388;2022-10-23T15:41:52;20.70;99.90
14519;DHT22;7346;50.846;4.388;2022-10-23T15:44:22;20.60;99.90
14519;DHT22;7346;50.846;4.388;2022-10-23T15:46:50;20.50;99.90
14519;DHT22;7346;50.846;4.388;2022-10-23T15:49:18;20.60;99.90
14519;DHT22;7346;50.846;4.388;2022-10-23T15:51:45;20.60;99.90
14519;DHT22;7346;50.846;4.388;2022-10-23T15:54:14;20.60;99.90
14519;DHT22;7346;50.846;4.388;2022-10-23T15:56:43;20.50;99.90
14519;DHT22;7346;50.846;4.388;2022-10-23T15:59:10;20.50;99.90
14519;DHT22;7346;50.846;4.388;2022-10-23T16:01:39;20.40;99.90
14519;DHT22;7346;50.846;4.388;2022-10-23T16:04:08;20.40;99.90
14519;DHT22;7346;50.846;4.388;2022-10-23T16:06:36;20.40;99.90
14519;DHT22;7346;50.846;4.388;2022-10-23T16:09:03;20.30;99.90
14519;DHT22;7346;50.846;4.388;2022-10-23T16:11:33;20.20;99.90
14519;DHT22;7346;50.846;4.388;2022-10-23T16:14:00;20.20;99.90